Time;durP1;ratioP1;P1;durP2;ratioP2;P2;SDS_P1;SDS_P2;PMS_P1;PMS_P2;Temp;Humidity;BMP_temperature;BMP_pressure;BME280_temperature;BME280_humidity;BME280_pressure;Samples;Min_cycle;Max_cycle;Signal;HPM_P1;HPM_P2
2024/01/01 00:00:49;;;;;;;47.53;26.98;;;7.20;99.90;;;;;;5117353;27;20080;-83
2024/01/01 00:03:14;;;;;;;37.83;21.20;;;7.50;99.90;;;;;;5114621;27;20035;-83
2024/01/01 00:05:40;;;;;;;41.03;25.42;;;7.70;99.90;;;;;;5099801;27;20529;-83
2024/01/01 00:08:07;;;;;;;39.78;25.15;;;7.10;99.90;;;;;;5116916;27;20039;-83
2024/01/01 00:10:32;;;;;;;37.55;25.45;;;7.80;99.90;;;;;;5090302;27;20036;-83
2024/01/01 00:12:58;;;;;;;37.78;23.67;;;8.00;99.90;;;;;;5116975;27;20414;-83
2024/01/01 00:15:23;;;;;;;33.88;22.40;;;7.10;99.90;;;;;;5116521;27;20406;-83
2024/01/01 00:17:49;;;;;;;38.03;22.15;;;7.70;99.90;;;;;;5109417;27;20042;-83
2024/01/01 00:20:15;;;;;;;41.35;25.05;;;7.30;99.90;;;;;;5115625;27;20070;-84
2024/01/01 00:22:42;;;;;;;39.22;22.13;;;7.30;99.90;;;;;;5095259;27;20042;-84
2024/01/01 00:25:08;;;;;;;31.88;20.23;;;7.20;99.90;;;;;;5099459;27;20070;-83
2024/01/01 00:27:34;;;;;;;40.80;27.38;;;7.10;99.90;;;;;;5114415;27;20092;-85
2024/01/01 00:30:00;;;;;;;37.25;24.63;;;7.10;99.90;;;;;;5093518;27;20129;-84
2024/01/01 00:32:26;;;;;;;46.60;30.83;;;7.10;99.90;;;;;;5096113;27;20111;-83
2024/01/01 00:34:52;;;;;;;50.78;30.35;;;7.60;99.90;;;;;;5101142;27;20134;-84
2024/01/01 00:37:18;;;;;;;56.33;36.33;;;7.10;99.90;;;;;;5102654;28;20042;-84
2024/01/01 00:39:43;;;;;;;42.63;29.95;;;7.10;99.90;;;;;;5112168;27;20071;-84
2024/01/01 00:42:09;;;;;;;41.33;24.73;;;7.10;99.90;;;;;;5089651;27;20042;-83
2024/01/01 00:44:34;;;;;;;42.22;26.38;;;7.90;99.90;;;;;;5097312;27;20040;-84
2024/01/01 00:47:00;;;;;;;43.08;26.92;;;7.40;99.90;;;;;;5107018;27;20085;-84
2024/01/01 00:49:25;;;;;;;40.83;26.52;;;7.10;99.90;;;;;;5111782;27;20380;-84
2024/01/01 00:51:51;;;;;;;47.08;26.73;;;7.10;99.90;;;;;;5093339;27;20027;-83
2024/01/01 00:54:17;;;;;;;41.80;25.50;;;7.10;99.90;;;;;;5094557;28;20088;-84
2024/01/01 00:56:42;;;;;;;44.40;27.55;;;7.70;99.90;;;;;;5102884;28;20032;-84
2024/01/01 00:59:08;;;;;;;51.58;30.77;;;7.40;99.90;;;;;;5109343;27;20089;-84
2024/01/01 01:01:34;;;;;;;42.08;26.20;;;7.20;99.90;;;;;;5111552;27;20047;-83
2024/01/01 01:03:59;;;;;;;41.33;25.20;;;7.10;99.90;;;;;;5115833;27;20085;-84
2024/01/01 01:06:25;;;;;;;43.95;27.38;;;7.10;99.90;;;;;;5114761;27;20031;-83
2024/01/01 01:08:51;;;;;;;41.90;25.50;;;7.10;99.90;;;;;;5113980;27;20038;-85
2024/01/01 01:11:16;;;;;;;39.97;26.77;;;7.10;99.90;;;;;;5091935;28;20123;-84
2024/01/01 01:13:42;;;;;;;42.70;26.38;;;7.70;99.90;;;;;;5082934;27;20398;-84
2024/01/01 01:16:07;;;;;;;39.47;23.63;;;7.10;99.90;;;;;;5114655;27;20550;-84
2024/01/01 01:18:33;;;;;;;43.65;24.30;;;7.10;99.90;;;;;;5088000;27;20039;-84
2024/01/01 01:20:59;;;;;;;36.60;22.23;;;7.10;99.90;;;;;;5107941;27;20031;-84
2024/01/01 01:23:24;;;;;;;36.47;22.70;;;7.80;99.90;;;;;;5109248;27;20043;-84
2024/01/01 01:25:50;;;;;;;39.83;24.40;;;7.10;99.90;;;;;;5109345;27;20098;-84
2024/01/01 01:28:22;;;;;;;42.63;25.23;;;7.10;99.90;;;;;;5107406;27;20038;-84
2024/01/01 01:30:48;;;;;;;49.60;28.45;;;7.10;99.90;;;;;;5108650;27;20031;-83
2024/01/01 01:33:14;;;;;;;55.53;31.92;;;7.60;99.90;;;;;;5083646;27;20054;-84
2024/01/01 01:35:39;;;;;;;50.80;28.02;;;7.10;99.90;;;;;;5107959;27;20033;-83
2024/01/01 01:38:05;;;;;;;41.75;23.58;;;7.80;99.90;;;;;;5111762;27;20031;-83
2024/01/01 01:40:31;;;;;;;41.65;22.83;;;7.10;99.90;;;;;;5090695;27;20042;-83
2024/01/01 01:42:56;;;;;;;39.17;24.75;;;7.20;99.90;;;;;;5114127;27;20031;-84
2024/01/01 01:45:22;;;;;;;38.33;23.40;;;7.60;99.90;;;;;;5089843;27;20036;-84
2024/01/01 01:47:48;;;;;;;41.38;26.30;;;7.30;99.90;;;;;;5113017;27;20453;-84
2024/01/01 01:50:16;;;;;;;38.15;24.08;;;7.30;99.90;;;;;;5111106;27;20122;-84
2024/01/01 01:52:44;;;;;;;38.53;24.40;;;7.90;99.90;;;;;;5106618;28;20054;-84
2024/01/01 01:55:12;;;;;;;34.83;23.17;;;7.30;99.90;;;;;;5086728;27;20063;-84
2024/01/01 01:57:40;;;;;;;32.13;21.67;;;7.60;99.90;;;;;;5114559;27;20035;-84
2024/01/01 02:00:06;;;;;;;34.05;20.90;;;7.40;99.90;;;;;;5110745;27;20437;-85
2024/01/01 02:02:35;;;;;;;33.15;19.35;;;7.40;99.90;;;;;;5113770;27;20494;-84
2024/01/01 02:05:03;;;;;;;31.50;18.85;;;7.50;99.90;;;;;;5113709;27;20042;-85
2024/01/01 02:07:30;;;;;;;34.63;19.73;;;7.90;99.90;;;;;;5104558;27;20026;-83
2024/01/01 02:09:56;;;;;;;33.47;21.02;;;7.40;99.90;;;;;;5106382;27;20444;-84
2024/01/01 02:12:21;;;;;;;31.48;19.65;;;7.50;99.90;;;;;;5100390;27;20127;-84
2024/01/01 02:14:48;;;;;;;32.80;18.42;;;7.80;99.90;;;;;;5094501;27;20064;-84
2024/01/01 02:17:15;;;;;;;32.60;18.10;;;7.40;99.90;;;;;;5108908;27;20039;-83
2024/01/01 02:19:41;;;;;;;30.48;18.45;;;7.40;99.90;;;;;;5094163;27;20647;-84
2024/01/01 02:22:06;;;;;;;27.33;18.60;;;8.10;99.90;;;;;;5087566;27;20031;-83
2024/01/01 02:24:33;;;;;;;31.75;18.00;;;7.40;99.90;;;;;;5087839;27;20059;-84
2024/01/01 02:26:58;;;;;;;33.00;19.17;;;7.50;99.90;;;;;;5112042;27;20031;-84
2024/01/01 02:29:24;;;;;;;31.50;19.95;;;8.10;99.90;;;;;;5096831;27;20532;-83
2024/01/01 02:31:49;;;;;;;30.40;18.67;;;7.40;99.90;;;;;;5092771;27;20089;-83
2024/01/01 02:34:17;;;;;;;31.30;19.92;;;7.50;99.90;;;;;;5103001;28;20032;-84
2024/01/01 02:36:43;;;;;;;33.08;20.80;;;7.50;99.90;;;;;;5111325;27;20076;-83
2024/01/01 02:39:10;;;;;;;32.50;19.80;;;8.00;99.90;;;;;;5092576;27;20043;-84
2024/01/01 02:41:36;;;;;;;39.60;22.55;;;8.00;99.90;;;;;;5109999;28;20660;-83
2024/01/01 02:44:03;;;;;;;36.85;22.08;;;7.90;99.90;;;;;;5113753;27;20477;-84
2024/01/01 02:46:28;;;;;;;32.55;18.75;;;7.70;99.90;;;;;;5083431;28;20040;-84
2024/01/01 02:48:54;;;;;;;31.17;18.58;;;7.60;99.90;;;;;;5092736;27;20080;-84
2024/01/01 02:51:19;;;;;;;27.33;16.70;;;8.00;99.90;;;;;;5097351;27;20524;-83
2024/01/01 02:53:45;;;;;;;25.73;16.63;;;7.30;99.90;;;;;;5113245;27;20123;-84
2024/01/01 02:56:23;;;;;;;28.33;16.45;;;7.20;99.90;;;;;;5113302;27;20518;-84
2024/01/01 02:58:49;;;;;;;27.27;15.65;;;7.10;99.90;;;;;;5096216;27;20035;-84
2024/01/01 03:01:15;;;;;;;25.25;15.07;;;7.00;99.90;;;;;;5111698;28;20035;-83
2024/01/01 03:03:41;;;;;;;24.50;14.07;;;7.00;99.90;;;;;;5112756;27;20037;-84
2024/01/01 03:06:09;;;;;;;21.95;12.98;;;6.90;99.90;;;;;;5093598;28;20409;-84
2024/01/01 03:08:38;;;;;;;17.98;11.20;;;6.90;99.90;;;;;;5109029;28;20039;-84
2024/01/01 03:11:07;;;;;;;18.88;11.07;;;6.80;99.90;;;;;;5098071;28;20027;-83
2024/01/01 03:13:33;;;;;;;20.02;11.77;;;7.40;99.90;;;;;;5102409;28;20035;-83
2024/01/01 03:15:59;;;;;;;19.95;11.38;;;7.10;99.90;;;;;;5089923;28;20027;-83
2024/01/01 03:18:25;;;;;;;17.92;11.48;;;6.90;99.90;;;;;;5093024;28;20081;-84
2024/01/01 03:20:51;;;;;;;21.48;10.80;;;6.70;99.90;;;;;;5100864;28;20063;-83
2024/01/01 03:23:16;;;;;;;21.20;11.52;;;6.70;99.90;;;;;;5089210;28;20058;-84
2024/01/01 03:25:42;;;;;;;17.67;11.35;;;7.00;99.90;;;;;;5083682;28;20039;-84
2024/01/01 03:28:08;;;;;;;18.95;10.55;;;6.70;99.90;;;;;;5112275;28;20076;-83
2024/01/01 03:30:33;;;;;;;19.73;10.57;;;6.60;99.90;;;;;;5086097;28;20073;-84
2024/01/01 03:32:59;;;;;;;21.27;10.45;;;7.30;99.90;;;;;;5095367;28;20110;-84
2024/01/01 03:35:24;;;;;;;20.00;10.73;;;6.70;99.90;;;;;;5083501;28;20069;-84
2024/01/01 03:37:50;;;;;;;20.95;10.45;;;6.70;99.90;;;;;;5111525;28;20398;-84
2024/01/01 03:40:16;;;;;;;18.52;9.63;;;6.70;99.90;;;;;;5113364;28;20031;-84
2024/01/01 03:42:41;;;;;;;16.60;8.63;;;6.70;99.90;;;;;;5113069;28;20126;-84
2024/01/01 03:45:08;;;;;;;15.45;8.27;;;6.70;99.90;;;;;;5108460;28;20051;-84
2024/01/01 03:47:33;;;;;;;18.23;8.77;;;6.70;99.90;;;;;;5090757;28;20081;-84
2024/01/01 03:49:59;;;;;;;17.65;8.25;;;6.60;99.90;;;;;;5078028;28;20448;-84
2024/01/01 03:52:25;;;;;;;18.23;8.10;;;6.60;99.90;;;;;;5092975;28;20063;-84
2024/01/01 03:54:51;;;;;;;15.98;7.20;;;6.60;99.90;;;;;;5110982;28;20039;-84
2024/01/01 03:57:17;;;;;;;16.48;7.40;;;6.60;99.90;;;;;;5107323;28;20093;-83
2024/01/01 03:59:43;;;;;;;13.32;6.30;;;6.60;99.90;;;;;;5108738;28;20111;-84
2024/01/01 04:02:10;;;;;;;11.27;5.90;;;6.60;99.90;;;;;;5109654;28;20031;-84
2024/01/01 04:04:36;;;;;;;10.45;5.43;;;7.40;99.90;;;;;;5111125;28;20036;-84
2024/01/01 04:07:02;;;;;;;11.18;5.38;;;6.60;99.90;;;;;;5105376;28;20118;-83
2024/01/01 04:09:28;;;;;;;9.90;5.40;;;6.60;99.90;;;;;;5103904;28;20084;-84
2024/01/01 04:11:54;;;;;;;11.82;5.18;;;7.30;99.90;;;;;;5111474;28;20031;-84
2024/01/01 04:14:19;;;;;;;9.90;5.47;;;7.40;99.90;;;;;;5109268;28;20039;-84
2024/01/01 04:16:45;;;;;;;14.60;5.25;;;6.50;99.90;;;;;;5113277;27;20039;-84
2024/01/01 04:19:10;;;;;;;10.63;4.35;;;7.10;99.90;;;;;;5096115;27;20586;-84
2024/01/01 04:21:40;;;;;;;8.80;4.00;;;6.60;99.90;;;;;;5113635;27;20114;-84
2024/01/01 04:24:09;;;;;;;10.43;4.72;;;6.60;99.90;;;;;;5110164;27;20045;-84
2024/01/01 04:26:36;;;;;;;10.10;4.07;;;6.50;99.90;;;;;;5115073;27;20068;-84
2024/01/01 04:29:02;;;;;;;12.25;4.18;;;6.50;99.90;;;;;;5111216;28;20038;-84
2024/01/01 04:31:28;;;;;;;8.23;3.38;;;6.50;99.90;;;;;;5112254;27;20050;-84
2024/01/01 04:33:54;;;;;;;8.25;3.25;;;6.50;99.90;;;;;;5114536;27;20023;-84
2024/01/01 04:36:21;;;;;;;10.15;3.67;;;6.90;99.90;;;;;;5098326;27;20035;-84
2024/01/01 04:38:47;;;;;;;6.75;3.20;;;6.50;99.90;;;;;;5091930;27;20398;-84
2024/01/01 04:41:12;;;;;;;8.48;3.05;;;6.50;99.90;;;;;;5111990;27;20451;-84
2024/01/01 04:43:41;;;;;;;6.80;3.25;;;6.50;99.90;;;;;;5114826;27;20134;-83
2024/01/01 04:46:08;;;;;;;5.93;2.72;;;6.50;99.90;;;;;;5113107;28;20048;-84
2024/01/01 04:48:34;;;;;;;9.13;2.92;;;6.50;99.90;;;;;;5108992;27;20035;-84
2024/01/01 04:51:00;;;;;;;8.98;3.00;;;6.50;99.90;;;;;;5103777;28;20035;-83
2024/01/01 04:53:26;;;;;;;7.97;3.03;;;6.50;99.90;;;;;;5094667;27;20706;-84
2024/01/01 04:55:51;;;;;;;7.65;2.90;;;6.50;99.90;;;;;;5094679;28;20411;-84
2024/01/01 04:58:17;;;;;;;7.43;3.08;;;6.40;99.90;;;;;;5110069;27;20027;-82
2024/01/01 05:00:42;;;;;;;7.75;2.80;;;6.40;99.90;;;;;;5112245;27;20115;-83
2024/01/01 05:03:08;;;;;;;10.15;2.70;;;6.40;99.90;;;;;;5115283;27;20444;-83
2024/01/01 05:05:34;;;;;;;7.45;2.80;;;6.40;99.90;;;;;;5114130;27;20035;-84
2024/01/01 05:07:59;;;;;;;6.05;2.50;;;6.40;99.90;;;;;;5114209;27;20027;-84
2024/01/01 05:10:25;;;;;;;7.05;2.80;;;7.00;99.90;;;;;;5113487;27;20490;-84
2024/01/01 05:12:50;;;;;;;11.70;3.38;;;7.10;99.90;;;;;;5109093;27;20431;-84
2024/01/01 05:15:16;;;;;;;10.82;3.03;;;6.40;99.90;;;;;;5094030;27;20060;-83
2024/01/01 05:17:42;;;;;;;7.43;2.88;;;6.50;99.90;;;;;;5107764;28;20036;-84
2024/01/01 05:20:08;;;;;;;6.53;2.75;;;6.50;99.90;;;;;;5092749;27;20097;-84
2024/01/01 05:22:33;;;;;;;9.45;3.28;;;6.50;99.90;;;;;;5109352;27;20053;-83
2024/01/01 05:24:59;;;;;;;6.47;3.10;;;6.50;99.90;;;;;;5114650;27;20035;-85
2024/01/01 05:27:25;;;;;;;11.60;3.58;;;6.50;99.90;;;;;;5111740;27;20031;-84
2024/01/01 05:29:51;;;;;;;7.35;2.65;;;7.00;99.90;;;;;;5106020;27;20086;-84
2024/01/01 05:32:17;;;;;;;9.18;2.90;;;7.20;99.90;;;;;;5095227;27;20062;-84
2024/01/01 05:34:43;;;;;;;9.60;2.78;;;6.50;99.90;;;;;;5091143;27;20039;-83
2024/01/01 05:37:09;;;;;;;10.32;2.85;;;6.50;99.90;;;;;;5115016;27;20112;-84
2024/01/01 05:39:35;;;;;;;11.10;3.03;;;6.80;99.90;;;;;;5097375;27;20035;-84
2024/01/01 05:42:01;;;;;;;7.75;2.40;;;6.50;99.90;;;;;;5113768;27;20039;-84
2024/01/01 05:44:27;;;;;;;9.27;3.10;;;6.50;99.90;;;;;;5104387;27;20061;-84
2024/01/01 05:46:53;;;;;;;9.63;2.83;;;6.50;99.90;;;;;;5112905;27;20050;-84
2024/01/01 05:49:18;;;;;;;7.65;2.65;;;6.50;99.90;;;;;;5093740;27;20066;-84
2024/01/01 05:51:44;;;;;;;9.35;3.15;;;7.00;99.90;;;;;;5105623;28;20046;-84
2024/01/01 05:54:10;;;;;;;6.70;2.50;;;6.50;99.90;;;;;;5089418;27;20027;-84
2024/01/01 05:56:36;;;;;;;9.48;2.78;;;6.50;99.90;;;;;;5106400;27;20429;-84
2024/01/01 05:59:02;;;;;;;7.10;2.65;;;7.10;99.90;;;;;;5106267;27;20084;-84
2024/01/01 06:01:28;;;;;;;8.38;3.05;;;6.60;99.90;;;;;;5097281;27;20062;-84
2024/01/01 06:03:53;;;;;;;8.90;2.67;;;7.10;99.90;;;;;;5096998;27;20130;-84
2024/01/01 06:06:19;;;;;;;8.40;2.42;;;6.60;99.90;;;;;;5092452;27;20035;-84
2024/01/01 06:08:44;;;;;;;8.55;2.35;;;6.80;99.90;;;;;;5113832;27;20034;-84
2024/01/01 06:11:10;;;;;;;9.60;2.78;;;6.60;99.90;;;;;;5107717;27;20084;-84
2024/01/01 06:13:36;;;;;;;9.40;2.50;;;7.30;99.90;;;;;;5110599;27;20035;-84
2024/01/01 06:16:03;;;;;;;6.68;2.47;;;6.60;99.90;;;;;;5090861;27;20494;-85
2024/01/01 06:18:29;;;;;;;8.38;2.40;;;6.60;99.90;;;;;;5095647;27;20031;-85
2024/01/01 06:20:54;;;;;;;8.70;2.45;;;6.70;99.90;;;;;;5104219;27;20401;-85
2024/01/01 06:23:20;;;;;;;9.15;3.00;;;7.00;99.90;;;;;;5112127;28;20057;-85
2024/01/01 06:25:46;;;;;;;9.45;2.88;;;6.70;99.90;;;;;;5114138;27;20058;-84
2024/01/01 06:28:11;;;;;;;8.30;2.33;;;6.70;99.90;;;;;;5087725;28;20138;-85
2024/01/01 06:30:37;;;;;;;6.22;2.38;;;7.10;99.90;;;;;;5089639;27;20035;-84
2024/01/01 06:33:03;;;;;;;8.18;2.20;;;6.70;99.90;;;;;;5109659;27;20455;-85
2024/01/01 06:35:30;;;;;;;7.80;2.08;;;6.60;99.90;;;;;;5092107;27;20059;-84
2024/01/01 06:37:59;;;;;;;9.80;2.80;;;6.60;99.90;;;;;;5111299;27;20397;-84
2024/01/01 06:40:25;;;;;;;10.50;2.78;;;6.60;99.90;;;;;;5110762;27;20036;-84
2024/01/01 06:42:51;;;;;;;8.25;2.85;;;7.10;99.90;;;;;;5088311;27;20039;-84
2024/01/01 06:45:17;;;;;;;11.13;3.30;;;6.70;99.90;;;;;;5112627;27;20503;-84
2024/01/01 06:47:43;;;;;;;14.32;3.67;;;6.70;99.90;;;;;;5095843;27;20075;-84
2024/01/01 06:50:09;;;;;;;9.40;3.13;;;6.70;99.90;;;;;;5089617;28;20546;-84
2024/01/01 06:52:34;;;;;;;9.35;3.20;;;6.70;99.90;;;;;;5110284;28;20031;-84
2024/01/01 06:55:00;;;;;;;11.27;3.50;;;6.70;99.90;;;;;;5091963;27;20075;-84
2024/01/01 06:57:26;;;;;;;7.30;2.72;;;6.80;99.90;;;;;;5107225;28;20493;-84
2024/01/01 06:59:51;;;;;;;8.55;3.47;;;6.70;99.90;;;;;;5105398;27;20574;-84
2024/01/01 07:02:18;;;;;;;8.07;3.00;;;7.00;99.90;;;;;;5111874;28;20391;-84
2024/01/01 07:04:43;;;;;;;8.60;3.10;;;6.70;99.90;;;;;;5110116;28;20046;-84
2024/01/01 07:07:10;;;;;;;10.15;3.60;;;7.30;99.90;;;;;;5107677;28;20036;-85
2024/01/01 07:09:35;;;;;;;5.90;2.28;;;7.20;99.90;;;;;;5084116;27;20035;-85
2024/01/01 07:12:27;;;;;;;12.80;2.72;;;6.80;99.90;;;;;;5103641;28;20406;-84
2024/01/01 07:14:56;;;;;;;9.43;2.67;;;6.80;99.90;;;;;;5108277;28;20158;-84
2024/01/01 07:17:21;;;;;;;11.65;2.83;;;6.70;99.90;;;;;;5079185;28;20063;-84
2024/01/01 07:19:47;;;;;;;5.70;2.30;;;7.10;99.90;;;;;;5081196;28;20136;-84
2024/01/01 07:22:13;;;;;;;10.63;2.88;;;6.80;99.90;;;;;;5107516;28;20039;-84
2024/01/01 07:24:39;;;;;;;8.02;2.42;;;6.80;99.90;;;;;;5091348;28;20077;-85
2024/01/01 07:27:05;;;;;;;9.90;3.17;;;7.40;99.90;;;;;;5099921;28;20138;-84
2024/01/01 07:29:31;;;;;;;10.02;2.67;;;7.20;99.90;;;;;;5086015;28;20119;-84
2024/01/01 07:31:57;;;;;;;8.48;3.13;;;6.80;99.90;;;;;;5101945;28;20027;-83
2024/01/01 07:34:24;;;;;;;6.40;1.80;;;6.80;99.90;;;;;;5107140;28;20532;-83
2024/01/01 07:36:50;;;;;;;3.20;0.90;;;6.50;99.90;;;;;;5087793;28;20095;-83
2024/01/01 07:39:19;;;;;;;3.10;0.60;;;6.00;99.90;;;;;;5106163;28;20039;-83
2024/01/01 07:41:48;;;;;;;2.60;0.98;;;5.70;99.90;;;;;;5094450;28;20073;-83
2024/01/01 07:44:14;;;;;;;1.33;0.60;;;5.80;99.90;;;;;;5084900;28;20039;-83
2024/01/01 07:46:39;;;;;;;0.88;0.30;;;5.40;99.90;;;;;;5104265;28;20085;-83
2024/01/01 07:49:06;;;;;;;1.17;0.45;;;5.40;99.90;;;;;;5106784;28;20503;-83
2024/01/01 07:51:35;;;;;;;1.10;0.32;;;5.40;99.90;;;;;;5093663;28;20031;-83
2024/01/01 07:54:01;;;;;;;1.42;0.47;;;5.80;99.90;;;;;;5088551;27;20687;-83
2024/01/01 07:56:28;;;;;;;1.80;0.47;;;5.50;99.90;;;;;;5108806;27;20032;-83
2024/01/01 07:58:53;;;;;;;1.95;0.50;;;5.60;99.90;;;;;;5095234;27;20050;-83
2024/01/01 08:01:19;;;;;;;1.23;0.52;;;5.90;99.90;;;;;;5098197;27;20031;-83
2024/01/01 08:03:45;;;;;;;2.53;0.80;;;5.60;99.90;;;;;;5101768;28;20398;-83
2024/01/01 08:06:11;;;;;;;1.35;0.50;;;5.70;99.90;;;;;;5108222;27;20564;-83
2024/01/01 08:08:37;;;;;;;2.65;0.70;;;6.50;99.90;;;;;;5088963;27;20039;-83
2024/01/01 08:11:03;;;;;;;4.82;0.85;;;6.20;99.90;;;;;;5113859;27;20027;-83
2024/01/01 08:13:28;;;;;;;6.57;1.98;;;5.80;99.90;;;;;;5111633;28;20039;-82
2024/01/01 08:15:54;;;;;;;5.18;1.88;;;5.80;99.90;;;;;;5089374;27;20038;-83
2024/01/01 08:18:20;;;;;;;8.27;1.73;;;6.00;99.90;;;;;;5099973;27;20401;-83
2024/01/01 08:20:45;;;;;;;6.10;1.65;;;6.00;99.90;;;;;;5088136;27;20040;-83
2024/01/01 08:23:11;;;;;;;5.53;1.60;;;6.10;99.90;;;;;;5091276;27;20683;-83
2024/01/01 08:25:37;;;;;;;5.65;1.50;;;6.10;99.90;;;;;;5102999;28;20076;-83
2024/01/01 08:28:02;;;;;;;5.35;1.60;;;6.10;99.90;;;;;;5083141;28;20036;-83
2024/01/01 08:30:28;;;;;;;5.45;1.30;;;6.10;99.90;;;;;;5088862;27;20031;-82
2024/01/01 08:32:54;;;;;;;4.03;1.15;;;6.90;99.90;;;;;;5101661;28;20032;-83
2024/01/01 08:35:20;;;;;;;4.90;1.60;;;6.10;99.90;;;;;;5090477;27;20042;-83
2024/01/01 08:37:47;;;;;;;5.95;1.80;;;6.10;99.90;;;;;;5086138;28;20077;-83
2024/01/01 08:40:13;;;;;;;4.93;1.73;;;6.10;99.90;;;;;;5085283;27;20122;-83
2024/01/01 08:42:38;;;;;;;4.68;1.30;;;6.10;99.90;;;;;;5104818;28;20530;-83
2024/01/01 08:45:04;;;;;;;6.38;1.35;;;6.40;99.90;;;;;;5108891;27;20043;-83
2024/01/01 08:47:30;;;;;;;4.55;1.38;;;6.20;99.90;;;;;;5112424;27;20547;-83
2024/01/01 08:49:56;;;;;;;6.13;1.52;;;6.30;99.90;;;;;;5107083;27;20032;-83
2024/01/01 08:52:21;;;;;;;4.55;1.70;;;6.30;99.90;;;;;;5110053;27;20095;-83
2024/01/01 08:54:47;;;;;;;5.80;1.80;;;6.30;99.90;;;;;;5099027;27;20111;-83
2024/01/01 08:57:13;;;;;;;7.70;1.85;;;6.30;99.90;;;;;;5094678;27;20072;-83
2024/01/01 08:59:39;;;;;;;5.35;1.45;;;6.30;99.90;;;;;;5092016;27;20038;-83
2024/01/01 09:02:06;;;;;;;6.00;1.40;;;6.30;99.90;;;;;;5110269;28;20491;-83
2024/01/01 09:04:32;;;;;;;10.30;4.55;;;6.30;99.90;;;;;;5095680;28;20036;-83
2024/01/01 09:07:00;;;;;;;11.32;2.78;;;6.30;99.90;;;;;;5088205;27;20031;-83
2024/01/01 09:09:27;;;;;;;4.15;1.40;;;6.30;99.90;;;;;;5107806;27;20731;-82
2024/01/01 09:11:52;;;;;;;4.80;1.50;;;6.20;99.90;;;;;;5108326;28;20047;-83
2024/01/01 09:14:18;;;;;;;4.07;1.15;;;6.10;99.90;;;;;;5108451;27;20043;-82
2024/01/01 09:16:43;;;;;;;6.57;1.80;;;5.90;99.90;;;;;;5110658;28;20035;-82
2024/01/01 09:19:09;;;;;;;3.70;1.02;;;5.70;99.90;;;;;;5102349;27;20039;-82
2024/01/01 09:21:35;;;;;;;3.88;0.70;;;5.60;99.90;;;;;;5115356;27;20035;-82
2024/01/01 09:24:01;;;;;;;3.08;0.90;;;5.50;99.90;;;;;;5115426;27;20062;-83
2024/01/01 09:26:30;;;;;;;1.73;0.68;;;5.50;99.90;;;;;;5115154;27;20039;-82
2024/01/01 09:28:56;;;;;;;5.47;0.90;;;5.60;99.90;;;;;;5114909;27;20406;-82
2024/01/01 09:31:22;;;;;;;4.05;1.10;;;5.60;99.90;;;;;;5107760;27;20092;-81
2024/01/01 09:33:48;;;;;;;3.08;1.00;;;5.60;99.90;;;;;;5093123;27;20023;-82
2024/01/01 09:36:14;;;;;;;5.30;0.93;;;5.80;99.90;;;;;;5081652;27;20035;-82
2024/01/01 09:38:41;;;;;;;5.10;0.90;;;5.80;99.90;;;;;;5097105;27;20084;-82
2024/01/01 09:41:10;;;;;;;1.77;0.60;;;5.70;99.90;;;;;;5090478;27;20046;-82
2024/01/01 09:43:36;;;;;;;2.40;1.00;;;5.80;99.90;;;;;;5103744;27;20077;-82
2024/01/01 09:46:02;;;;;;;2.08;0.70;;;5.90;99.90;;;;;;5109396;27;20031;-82
2024/01/01 09:48:27;;;;;;;2.88;1.10;;;5.90;99.90;;;;;;5087377;27;20118;-83
2024/01/01 09:50:53;;;;;;;4.13;1.52;;;6.20;99.90;;;;;;5089341;28;20670;-83
2024/01/01 09:53:19;;;;;;;4.45;1.27;;;6.20;99.90;;;;;;5088926;27;20511;-82
2024/01/01 09:55:54;;;;;;;4.75;1.27;;;6.10;99.90;;;;;;5108376;27;20038;-82
2024/01/01 09:58:20;;;;;;;6.25;1.90;;;6.40;99.90;;;;;;5102061;28;20031;-81
2024/01/01 10:00:48;;;;;;;7.25;2.22;;;6.40;99.90;;;;;;5080714;27;20065;-82
2024/01/01 10:03:14;;;;;;;6.35;2.30;;;6.50;99.90;;;;;;5099335;27;20651;-82
2024/01/01 10:05:40;;;;;;;7.30;1.85;;;6.60;99.90;;;;;;5096068;27;20039;-82
2024/01/01 10:08:15;;;;;;;8.50;2.42;;;6.70;99.90;;;;;;5081577;28;20031;-83
2024/01/01 10:10:42;;;;;;;11.20;2.22;;;6.70;99.90;;;;;;5095100;27;20529;-82
2024/01/01 10:13:12;;;;;;;9.38;2.17;;;6.70;99.90;;;;;;5093286;27;20035;-82
2024/01/01 10:15:40;;;;;;;7.63;2.00;;;6.70;99.90;;;;;;5102042;27;20063;-82
2024/01/01 10:18:13;;;;;;;11.80;1.77;;;6.70;99.90;;;;;;5104430;27;20043;-82
2024/01/01 10:20:40;;;;;;;10.35;1.90;;;6.70;99.90;;;;;;5105651;27;20440;-82
2024/01/01 10:23:21;;;;;;;6.15;1.85;;;6.70;99.90;;;;;;5086012;27;20421;-82
2024/01/01 10:25:50;;;;;;;8.20;1.80;;;7.10;99.90;;;;;;5104548;27;20122;-83
2024/01/01 10:28:16;;;;;;;8.55;1.50;;;6.80;99.90;;;;;;5111396;27;20051;-83
2024/01/01 10:30:49;;;;;;;7.38;1.67;;;7.00;99.90;;;;;;5104659;27;20039;-83
2024/01/01 10:33:15;;;;;;;14.30;2.10;;;6.90;99.90;;;;;;5093330;27;20123;-82
2024/01/01 10:35:42;;;;;;;8.88;1.73;;;7.10;99.90;;;;;;5108631;27;20841;-83
2024/01/01 10:38:08;;;;;;;9.35;2.20;;;7.20;99.90;;;;;;5111082;27;20061;-83
2024/01/01 10:40:34;;;;;;;11.55;2.33;;;7.30;99.90;;;;;;5087259;28;20051;-83
2024/01/01 10:43:00;;;;;;;10.80;1.90;;;7.50;99.90;;;;;;5113505;27;20027;-82
2024/01/01 10:45:26;;;;;;;11.45;2.00;;;7.40;99.90;;;;;;5096156;27;20041;-82
2024/01/01 10:47:54;;;;;;;11.00;2.88;;;7.40;99.90;;;;;;5085462;28;20039;-83
2024/01/01 10:50:39;;;;;;;9.63;1.83;;;7.40;99.90;;;;;;5105753;27;20490;-82
2024/01/01 10:53:36;;;;;;;9.32;2.22;;;7.40;99.90;;;;;;5104394;27;20036;-82
2024/01/01 10:56:19;;;;;;;10.55;2.42;;;7.40;99.90;;;;;;5102313;27;20039;-82
2024/01/01 10:59:10;;;;;;;12.55;2.00;;;7.50;99.90;;;;;;5095605;27;20110;-81
2024/01/01 11:01:37;;;;;;;10.77;2.15;;;7.50;99.90;;;;;;5085381;27;20039;-81
2024/01/01 11:04:04;;;;;;;5.55;1.42;;;7.50;99.90;;;;;;5099950;28;20517;-82
2024/01/01 11:06:39;;;;;;;14.07;2.15;;;7.50;99.90;;;;;;5084526;28;20028;-82
2024/01/01 11:09:20;;;;;;;11.38;2.10;;;7.40;99.90;;;;;;5106326;28;20411;-82
2024/01/01 11:11:47;;;;;;;9.25;1.42;;;7.40;99.90;;;;;;5091216;28;20066;-83
2024/01/01 11:14:23;;;;;;;6.90;1.48;;;7.60;99.90;;;;;;5090191;28;20117;-81
2024/01/01 11:16:51;;;;;;;8.00;1.63;;;7.60;99.90;;;;;;5083146;28;20062;-82
2024/01/01 11:19:39;;;;;;;7.88;1.70;;;7.30;99.90;;;;;;5110548;28;20518;-82
2024/01/01 11:22:20;;;;;;;7.55;1.70;;;7.30;99.90;;;;;;5106845;28;20031;-81
2024/01/01 11:24:47;;;;;;;13.88;2.30;;;7.40;99.90;;;;;;5087751;27;20045;-81
2024/01/01 11:27:26;;;;;;;10.98;1.83;;;7.30;99.90;;;;;;5095053;27;20043;-82
2024/01/01 11:29:52;;;;;;;12.65;2.17;;;7.30;99.90;;;;;;5103871;27;20498;-82
2024/01/01 11:32:19;;;;;;;8.73;2.47;;;7.30;99.90;;;;;;5117185;27;20045;-82
2024/01/01 11:35:02;;;;;;;11.32;2.00;;;7.50;99.90;;;;;;5080877;28;20042;-82
2024/01/01 11:37:28;;;;;;;7.53;2.20;;;7.30;99.90;;;;;;5099849;27;20434;-82
2024/01/01 11:40:04;;;;;;;9.27;2.10;;;7.30;99.90;;;;;;5117335;27;20070;-83
2024/01/01 11:42:30;;;;;;;12.93;2.10;;;7.20;99.90;;;;;;5117259;27;20062;-82
2024/01/01 11:45:11;;;;;;;11.02;2.17;;;7.50;99.90;;;;;;5117068;27;20035;-82
2024/01/01 11:47:38;;;;;;;13.50;2.33;;;7.30;99.90;;;;;;5097624;28;20517;-82
2024/01/01 11:50:06;;;;;;;17.20;3.03;;;7.30;99.90;;;;;;5116052;27;20038;-81
2024/01/01 11:52:32;;;;;;;10.23;2.45;;;7.30;99.90;;;;;;5117221;27;20421;-82
2024/01/01 11:54:58;;;;;;;14.40;2.33;;;7.90;99.90;;;;;;5117317;27;20416;-81
2024/01/01 11:57:24;;;;;;;10.52;2.58;;;7.70;99.90;;;;;;5099680;27;20087;-82
2024/01/01 11:59:50;;;;;;;14.40;2.63;;;7.50;99.90;;;;;;5115592;27;20035;-82
2024/01/01 12:02:19;;;;;;;9.38;2.35;;;7.60;99.90;;;;;;5098397;27;20043;-82
2024/01/01 12:04:51;;;;;;;10.88;2.38;;;7.70;99.90;;;;;;5115543;27;20042;-83
2024/01/01 12:07:33;;;;;;;11.23;1.95;;;7.80;99.90;;;;;;5100499;27;20498;-82
2024/01/01 12:10:10;;;;;;;12.02;2.33;;;7.80;99.90;;;;;;5116653;27;20070;-82
2024/01/01 12:12:38;;;;;;;7.28;1.90;;;7.80;99.90;;;;;;5116556;27;20043;-82
2024/01/01 12:15:30;;;;;;;10.98;1.92;;;7.90;99.90;;;;;;5116847;27;20039;-83
2024/01/01 12:17:56;;;;;;;12.70;1.88;;;8.20;99.90;;;;;;5113323;27;20078;-82
2024/01/01 12:20:25;;;;;;;9.60;2.25;;;8.60;99.90;;;;;;5116651;27;20073;-83
2024/01/01 12:23:11;;;;;;;9.77;1.60;;;8.70;99.90;;;;;;5093655;28;20051;-83
2024/01/01 12:25:36;;;;;;;10.60;1.73;;;8.20;99.90;;;;;;5099924;27;20035;-82
2024/01/01 12:28:07;;;;;;;11.45;2.00;;;8.40;99.90;;;;;;5116456;27;20042;-83
2024/01/01 12:30:33;;;;;;;7.80;1.48;;;8.10;99.90;;;;;;5085516;28;20525;-82
2024/01/01 12:32:59;;;;;;;9.90;2.00;;;8.00;99.90;;;;;;5090375;27;20548;-82
2024/01/01 12:35:26;;;;;;;11.50;1.77;;;8.50;99.90;;;;;;5115986;27;20035;-83
2024/01/01 12:37:52;;;;;;;8.73;1.85;;;8.10;99.90;;;;;;5086735;28;20023;-83
2024/01/01 12:40:18;;;;;;;10.30;1.90;;;8.00;99.90;;;;;;5106512;27;20516;-82
2024/01/01 12:42:45;;;;;;;12.10;1.85;;;8.20;99.90;;;;;;5116035;27;20027;-83
2024/01/01 12:45:12;;;;;;;11.07;1.92;;;8.50;99.90;;;;;;5098901;27;20095;-81
2024/01/01 12:47:41;;;;;;;9.48;1.77;;;8.10;99.90;;;;;;5116322;27;20402;-82